createdAt,value
2018-10-06T00:00:45.921Z,5.90
2018-10-06T00:05:43.397Z,5.80
2018-10-06T00:10:40.878Z,5.97
2018-10-06T00:15:38.376Z,6.20
2018-10-06T00:20:35.861Z,6.00
2018-10-06T00:25:33.346Z,6.20
2018-10-06T00:30:30.850Z,5.47
2018-10-06T00:35:28.321Z,6.57
2018-10-06T00:40:25.790Z,5.80
2018-10-06T00:45:23.295Z,5.63
2018-10-06T00:50:21.934Z,8.20
2018-10-06T00:55:19.428Z,6.20
2018-10-06T01:00:16.896Z,5.83
2018-10-06T01:05:14.350Z,6.60
2018-10-06T01:10:11.833Z,7.47
2018-10-06T01:15:09.348Z,5.90
2018-10-06T01:20:09.602Z,5.63
2018-10-06T01:25:07.127Z,6.27
2018-10-06T01:30:04.625Z,5.83
2018-10-06T01:35:02.120Z,5.80
2018-10-06T01:39:59.610Z,6.80
2018-10-06T01:44:57.081Z,7.90
2018-10-06T01:49:55.690Z,7.13
2018-10-06T01:54:53.229Z,8.00
2018-10-06T01:59:50.690Z,9.50
2018-10-06T02:04:48.166Z,7.47
2018-10-06T02:09:45.733Z,7.23
2018-10-06T02:14:43.366Z,6.77
2018-10-06T02:19:51.318Z,7.87
2018-10-06T02:24:49.301Z,6.47
2018-10-06T02:29:46.758Z,8.40
2018-10-06T02:34:44.257Z,8.20
2018-10-06T02:39:41.725Z,8.10
2018-10-06T02:44:39.215Z,8.43
2018-10-06T02:54:46.189Z,9.77
2018-10-06T02:59:43.658Z,7.63
2018-10-06T03:04:41.118Z,7.57
2018-10-06T03:09:38.672Z,8.90
2018-10-06T03:14:36.135Z,8.70
2018-10-06T03:19:38.312Z,7.70
2018-10-06T03:24:35.823Z,8.37
2018-10-06T03:29:33.294Z,8.60
2018-10-06T03:34:30.749Z,9.00
2018-10-06T03:39:28.222Z,9.60
2018-10-06T03:44:25.658Z,8.30
2018-10-06T03:49:32.566Z,10.50
2018-10-06T03:54:30.167Z,9.83
2018-10-06T03:59:27.625Z,12.40
2018-10-06T04:04:25.168Z,9.03
2018-10-06T04:09:23.258Z,10.50
2018-10-06T04:14:20.733Z,10.60
2018-10-06T04:19:26.124Z,8.90
2018-10-06T04:24:23.689Z,10.57
2018-10-06T04:29:21.210Z,12.23
2018-10-06T04:34:18.702Z,10.53
2018-10-06T04:39:16.189Z,11.63
2018-10-06T04:44:13.658Z,10.83
2018-10-06T04:49:13.794Z,11.30
2018-10-06T04:54:11.284Z,10.70
2018-10-06T04:59:08.773Z,11.40
2018-10-06T05:04:06.327Z,11.20
2018-10-06T05:09:04.856Z,11.40
2018-10-06T05:14:02.370Z,10.73
2018-10-06T05:19:00.011Z,11.10
2018-10-06T05:23:57.527Z,11.67
2018-10-06T05:28:55.014Z,12.23
2018-10-06T05:33:52.633Z,11.40
2018-10-06T05:38:50.195Z,10.10
2018-10-06T05:43:47.782Z,12.70
2018-10-06T05:48:45.309Z,11.37
2018-10-06T05:53:42.937Z,10.57
2018-10-06T05:58:40.445Z,10.87
2018-10-06T06:03:37.959Z,14.03
2018-10-06T06:08:35.575Z,13.70
2018-10-06T06:13:33.091Z,13.33
2018-10-06T06:18:30.593Z,11.00
2018-10-06T06:23:28.082Z,10.70
2018-10-06T06:28:25.664Z,9.43
2018-10-06T06:33:23.146Z,9.57
2018-10-06T06:38:20.690Z,10.13
2018-10-06T06:43:18.232Z,9.87
2018-10-06T06:48:15.738Z,11.23
2018-10-06T06:53:13.253Z,10.27
2018-10-06T06:58:10.847Z,9.90
2018-10-06T07:03:08.373Z,11.63
2018-10-06T07:08:06.023Z,11.13
2018-10-06T07:13:03.542Z,12.10
2018-10-06T07:18:01.147Z,11.80
2018-10-06T07:22:58.630Z,11.67
2018-10-06T07:27:56.134Z,11.80
2018-10-06T07:32:53.852Z,11.37
2018-10-06T07:37:51.326Z,11.80
2018-10-06T07:42:48.822Z,10.73
2018-10-06T07:47:46.349Z,14.67
2018-10-06T07:52:43.869Z,11.83
2018-10-06T07:57:41.350Z,11.13
2018-10-06T08:02:38.866Z,10.90
2018-10-06T08:07:36.374Z,10.97
2018-10-06T08:12:33.877Z,13.60
2018-10-06T08:17:31.364Z,11.67
2018-10-06T08:22:28.924Z,11.33
2018-10-06T08:27:26.451Z,10.10
2018-10-06T08:32:23.980Z,10.50
2018-10-06T08:37:21.505Z,10.30
2018-10-06T08:42:19.011Z,8.43
2018-10-06T08:47:16.629Z,8.37
2018-10-06T08:52:14.123Z,9.40
2018-10-06T08:57:11.733Z,8.53
2018-10-06T09:02:09.250Z,8.03
2018-10-06T09:07:06.807Z,10.00
2018-10-06T09:12:04.350Z,8.10
2018-10-06T09:17:01.890Z,6.53
2018-10-06T09:21:59.401Z,6.90
2018-10-06T09:26:56.911Z,7.33
2018-10-06T09:31:54.442Z,6.50
2018-10-06T09:36:52.037Z,6.00
2018-10-06T09:41:49.641Z,6.10
2018-10-06T09:46:47.145Z,5.67
2018-10-06T09:51:44.684Z,7.03
2018-10-06T09:56:42.342Z,5.40
2018-10-06T10:01:45.655Z,5.30
2018-10-06T10:06:43.208Z,5.07
2018-10-06T10:11:40.720Z,5.50
2018-10-06T10:16:38.253Z,5.13
2018-10-06T10:21:35.760Z,4.80
2018-10-06T10:26:33.274Z,5.77
2018-10-06T10:31:30.838Z,4.90
2018-10-06T10:36:28.361Z,5.13
2018-10-06T10:41:25.846Z,5.33
2018-10-06T10:46:23.340Z,4.90
2018-10-06T10:51:20.894Z,4.30
2018-10-06T10:56:18.402Z,5.40
2018-10-06T11:01:15.976Z,4.50
2018-10-06T11:06:14.302Z,5.10
2018-10-06T11:11:11.998Z,4.30
2018-10-06T11:16:09.518Z,4.60
2018-10-06T11:21:07.130Z,4.93
2018-10-06T11:26:04.685Z,4.80
2018-10-06T11:31:02.177Z,5.93
2018-10-06T11:35:59.687Z,4.13
2018-10-06T11:40:57.194Z,4.00
2018-10-06T11:45:54.809Z,3.77
2018-10-06T11:50:52.341Z,4.13
2018-10-06T11:55:49.895Z,4.03
2018-10-06T12:00:47.454Z,3.00
2018-10-06T12:05:44.980Z,3.93
2018-10-06T12:10:42.501Z,3.27
2018-10-06T12:15:40.030Z,2.60
2018-10-06T12:20:37.555Z,4.57
2018-10-06T12:25:35.089Z,3.77
2018-10-06T12:30:32.611Z,2.30
2018-10-06T12:35:30.263Z,2.80
2018-10-06T12:40:27.632Z,2.20
2018-10-06T12:45:25.135Z,2.30
2018-10-06T12:50:23.810Z,2.03
2018-10-06T12:55:21.338Z,2.90
2018-10-06T13:00:18.834Z,1.90
2018-10-06T13:05:16.432Z,1.97
2018-10-06T13:10:13.953Z,2.23
2018-10-06T13:15:11.445Z,2.20
2018-10-06T13:20:10.359Z,2.20
2018-10-06T13:25:07.893Z,2.10
2018-10-06T13:30:05.943Z,1.40
2018-10-06T13:35:03.524Z,1.87
2018-10-06T13:40:01.066Z,1.70
2018-10-06T13:44:58.646Z,1.73
2018-10-06T13:49:57.392Z,1.87
2018-10-06T13:54:57.487Z,2.00
2018-10-06T13:59:55.101Z,1.80
2018-10-06T14:04:54.399Z,2.03
2018-10-06T14:09:52.075Z,2.10
2018-10-06T14:14:49.619Z,2.30
2018-10-06T14:19:52.501Z,1.70
2018-10-06T14:24:51.144Z,1.90
2018-10-06T14:29:50.872Z,1.97
2018-10-06T14:34:48.648Z,1.97
2018-10-06T14:39:46.488Z,2.43
2018-10-06T14:44:44.051Z,2.60
2018-10-06T14:49:47.839Z,1.80
2018-10-06T14:54:45.487Z,2.20
2018-10-06T14:59:43.059Z,1.93
2018-10-06T15:04:40.782Z,1.80
2018-10-06T15:09:38.504Z,2.07
2018-10-06T15:14:36.039Z,2.30
2018-10-06T15:19:35.835Z,2.33
2018-10-06T15:24:35.031Z,2.33
2018-10-06T15:29:32.610Z,2.40
2018-10-06T15:34:30.105Z,2.60
2018-10-06T15:39:27.605Z,2.87
2018-10-06T15:44:25.105Z,2.33
2018-10-06T15:49:30.172Z,2.63
2018-10-06T15:54:27.835Z,2.80
2018-10-06T15:59:25.341Z,2.60
2018-10-06T16:04:22.839Z,2.83
2018-10-06T16:09:20.342Z,2.37
2018-10-06T16:14:17.847Z,2.17
2018-10-06T16:19:20.653Z,2.40
2018-10-06T16:24:18.223Z,2.80
2018-10-06T16:29:15.725Z,2.90
2018-10-06T16:34:13.230Z,2.87
2018-10-06T16:39:10.780Z,2.90
2018-10-06T16:44:08.299Z,2.80
2018-10-06T16:49:08.486Z,3.03
2018-10-06T16:54:06.010Z,2.87
2018-10-06T16:59:03.510Z,2.53
2018-10-06T17:04:02.719Z,3.57
2018-10-06T17:09:03.495Z,4.00
2018-10-06T17:14:03.118Z,3.13
2018-10-06T17:19:04.540Z,4.23
2018-10-06T17:24:03.547Z,4.27
2018-10-06T17:29:01.174Z,3.90
2018-10-06T17:33:59.425Z,3.40
2018-10-06T17:38:57.075Z,3.93
2018-10-06T17:43:54.578Z,6.53
2018-10-06T17:48:52.071Z,6.00
2018-10-06T17:53:49.672Z,5.10
2018-10-06T17:58:55.690Z,6.63
2018-10-06T18:03:53.449Z,7.43
2018-10-06T18:08:50.942Z,8.90
2018-10-06T18:13:48.493Z,8.17
2018-10-06T18:18:45.994Z,8.63
2018-10-06T18:23:43.481Z,8.13
2018-10-06T18:28:41.014Z,8.10
2018-10-06T18:33:42.472Z,8.47
2018-10-06T18:38:40.025Z,7.67
2018-10-06T18:43:37.666Z,8.73
2018-10-06T18:48:35.125Z,7.60
2018-10-06T18:53:32.583Z,8.90
2018-10-06T18:58:30.061Z,7.43
2018-10-06T19:03:27.580Z,7.00
2018-10-06T19:08:25.084Z,7.13
2018-10-06T19:13:22.552Z,6.40
2018-10-06T19:18:20.066Z,6.27
2018-10-06T19:23:17.610Z,5.97
2018-10-06T19:28:15.093Z,6.23
2018-10-06T19:33:12.590Z,6.70
2018-10-06T19:38:10.130Z,6.27
2018-10-06T19:43:07.597Z,6.50
2018-10-06T19:48:05.221Z,7.07
2018-10-06T19:53:02.702Z,7.07
2018-10-06T19:58:00.201Z,7.20
2018-10-06T20:02:57.687Z,8.43
2018-10-06T20:07:56.739Z,7.13
2018-10-06T20:12:54.395Z,8.80
2018-10-06T20:17:51.983Z,8.10
2018-10-06T20:22:49.785Z,7.40
2018-10-06T20:27:47.362Z,7.43
2018-10-06T20:32:44.976Z,8.80
2018-10-06T20:37:42.636Z,8.20
2018-10-06T20:42:40.173Z,7.73
2018-10-06T20:47:38.567Z,8.77
2018-10-06T20:52:36.184Z,7.93
2018-10-06T20:57:33.736Z,7.80
2018-10-06T21:02:31.344Z,7.37
2018-10-06T21:07:28.975Z,6.83
2018-10-06T21:12:26.486Z,8.20
2018-10-06T21:17:24.067Z,8.10
2018-10-06T21:22:21.616Z,8.40
2018-10-06T21:27:19.115Z,7.70
2018-10-06T21:32:16.838Z,8.47
2018-10-06T21:37:14.371Z,8.60
2018-10-06T21:42:11.870Z,7.80
2018-10-06T21:47:09.347Z,8.23
2018-10-06T21:52:06.837Z,9.50
2018-10-06T21:57:04.375Z,11.33
2018-10-06T22:02:04.472Z,12.00
2018-10-06T22:07:03.807Z,12.40
2018-10-06T22:12:01.422Z,10.70
2018-10-06T22:16:59.174Z,11.00
2018-10-06T22:21:56.675Z,11.60
2018-10-06T22:26:54.235Z,11.60
2018-10-06T22:31:52.401Z,10.20
2018-10-06T22:36:49.877Z,11.33
2018-10-06T22:41:47.358Z,11.50
2018-10-06T22:46:44.830Z,16.17
2018-10-06T22:51:42.318Z,20.07
2018-10-06T22:56:39.786Z,20.90
2018-10-06T23:01:37.310Z,27.30
2018-10-06T23:06:34.827Z,28.73
2018-10-06T23:11:32.301Z,30.23
2018-10-06T23:16:29.806Z,33.67
2018-10-06T23:21:27.357Z,36.63
2018-10-06T23:26:24.882Z,39.87
2018-10-06T23:31:22.393Z,42.80
2018-10-06T23:36:19.936Z,45.00
2018-10-06T23:41:17.389Z,43.53
2018-10-06T23:46:14.856Z,45.20
2018-10-06T23:51:12.409Z,53.70
2018-10-06T23:56:09.930Z,51.93
